Time;durP1;ratioP1;P1;durP2;ratioP2;P2;SDS_P1;SDS_P2;PMS_P1;PMS_P2;Temp;Humidity;BMP_temperature;BMP_pressure;BME280_temperature;BME280_humidity;BME280_pressure;Samples;Min_cycle;Max_cycle;Signal;HPM_P1;HPM_P2
2022/04/06 00:00:38;;;;;;;3.22;2.42;;;8.60;99.90;;;;;;5066174;28;20092;-86
2022/04/06 00:03:04;;;;;;;2.25;1.65;;;8.60;99.90;;;;;;5076824;28;20021;-86
2022/04/06 00:05:30;;;;;;;2.95;2.42;;;8.60;99.90;;;;;;5055032;28;20036;-86
2022/04/06 00:07:56;;;;;;;2.10;1.92;;;8.60;99.90;;;;;;5061368;28;20028;-86
2022/04/06 00:10:21;;;;;;;3.00;2.10;;;8.60;99.90;;;;;;5073117;28;20017;-87
2022/04/06 00:12:47;;;;;;;3.30;2.40;;;8.60;99.90;;;;;;5060388;28;20047;-87
2022/04/06 00:15:13;;;;;;;3.90;2.20;;;8.60;99.90;;;;;;5055517;28;20051;-86
2022/04/06 00:17:39;;;;;;;2.30;2.08;;;8.50;99.90;;;;;;5042752;28;20029;-86
2022/04/06 00:20:08;;;;;;;3.00;2.10;;;8.50;99.90;;;;;;5060385;28;20022;-86
2022/04/06 00:22:33;;;;;;;2.35;2.15;;;8.50;99.90;;;;;;5060312;28;20060;-86
2022/04/06 00:24:59;;;;;;;2.38;2.05;;;8.50;99.90;;;;;;5059856;28;20025;-86
2022/04/06 00:27:26;;;;;;;2.53;2.20;;;8.50;99.90;;;;;;5041045;28;20036;-86
2022/04/06 00:29:52;;;;;;;3.05;2.03;;;8.60;99.90;;;;;;5041989;28;20021;-86
2022/04/06 00:32:18;;;;;;;3.05;2.25;;;8.50;99.90;;;;;;5037630;28;20082;-87
2022/04/06 00:38:08;;;;;;;4.72;2.97;;;8.60;99.90;;;;;;5059513;28;20032;-86
2022/04/06 00:41:26;;;;;;;5.00;2.63;;;8.60;99.90;;;;;;5060847;28;20147;-86
2022/04/06 00:44:13;;;;;;;2.58;2.13;;;8.70;99.90;;;;;;5017479;28;20068;-86
2022/04/06 00:46:39;;;;;;;3.00;2.08;;;8.70;99.90;;;;;;5023334;28;20038;-85
2022/04/06 00:49:10;;;;;;;2.35;1.90;;;8.70;99.90;;;;;;5044083;28;20082;-86
2022/04/06 00:51:43;;;;;;;4.82;2.58;;;8.70;99.90;;;;;;5025965;28;20033;-86
2022/04/06 00:54:11;;;;;;;2.78;2.13;;;8.70;99.90;;;;;;5038635;28;20033;-86
2022/04/06 00:56:37;;;;;;;2.28;2.08;;;8.70;99.90;;;;;;5058040;28;20038;-86
2022/04/06 00:59:02;;;;;;;2.20;1.88;;;8.60;99.90;;;;;;5051430;28;20085;-85
2022/04/06 01:01:28;;;;;;;2.45;2.00;;;8.70;99.90;;;;;;5042065;28;20156;-85
2022/04/06 01:03:54;;;;;;;3.60;2.65;;;8.70;99.90;;;;;;5033082;28;20021;-87
2022/04/06 01:06:20;;;;;;;3.72;3.05;;;8.70;99.90;;;;;;5039654;28;20324;-87
2022/04/06 01:08:46;;;;;;;3.92;3.00;;;8.70;99.90;;;;;;5029813;28;20026;-86
2022/04/06 01:11:12;;;;;;;3.67;2.92;;;8.70;99.90;;;;;;5048712;28;20239;-87
2022/04/06 01:13:38;;;;;;;4.60;2.80;;;8.70;99.90;;;;;;5066947;28;20106;-86
2022/04/06 01:16:04;;;;;;;4.03;2.92;;;8.80;99.90;;;;;;5059169;28;20098;-86
2022/04/06 01:18:33;;;;;;;3.83;3.38;;;8.80;99.90;;;;;;5041700;28;20087;-86
2022/04/06 01:20:59;;;;;;;6.03;3.53;;;8.80;99.90;;;;;;5058644;28;20029;-86
2022/04/06 01:23:25;;;;;;;3.30;2.72;;;8.80;99.90;;;;;;5023579;28;20017;-86
2022/04/06 01:25:51;;;;;;;3.28;2.97;;;8.80;99.90;;;;;;5039314;28;20021;-86
2022/04/06 01:28:17;;;;;;;4.97;2.70;;;8.80;99.90;;;;;;5039059;28;20048;-86
2022/04/06 01:30:43;;;;;;;3.45;2.70;;;8.80;99.90;;;;;;5022016;28;20030;-85
2022/04/06 01:33:09;;;;;;;3.20;2.60;;;8.80;99.90;;;;;;5030061;28;20472;-86
2022/04/06 01:35:38;;;;;;;2.40;2.20;;;8.80;99.90;;;;;;5059176;28;20152;-86
2022/04/06 01:38:10;;;;;;;2.83;2.42;;;8.80;99.90;;;;;;5044839;28;20024;-87
2022/04/06 01:40:39;;;;;;;2.22;2.00;;;8.80;99.90;;;;;;5048484;28;20024;-89
2022/04/06 01:43:05;;;;;;;2.03;1.90;;;8.90;99.90;;;;;;5049479;28;20037;-86
2022/04/06 01:45:30;;;;;;;1.80;1.67;;;8.80;99.90;;;;;;5066402;28;20078;-87
2022/04/06 01:47:56;;;;;;;4.40;2.10;;;8.90;99.90;;;;;;5046052;28;20029;-87
2022/04/06 01:53:09;;;;;;;2.72;1.80;;;8.90;99.90;;;;;;5044512;28;20115;-87
2022/04/06 01:55:35;;;;;;;2.67;2.20;;;8.90;99.90;;;;;;5024143;28;20057;-87
2022/04/06 01:58:00;;;;;;;2.88;2.28;;;8.90;99.90;;;;;;5021685;28;20036;-86
2022/04/06 02:00:27;;;;;;;4.32;3.08;;;8.90;99.90;;;;;;5039947;28;20020;-86
2022/04/06 02:02:53;;;;;;;5.07;3.17;;;8.90;99.90;;;;;;5022717;28;20116;-86
2022/04/06 02:05:20;;;;;;;4.97;2.78;;;8.90;99.90;;;;;;5021333;28;20131;-86
2022/04/06 02:07:46;;;;;;;3.65;2.40;;;8.90;99.90;;;;;;5027765;28;20151;-85
2022/04/06 02:10:14;;;;;;;4.50;2.38;;;8.90;99.90;;;;;;5031137;28;20060;-86
2022/04/06 02:12:40;;;;;;;2.70;2.28;;;8.90;99.90;;;;;;5031610;28;20040;-86
2022/04/06 02:15:11;;;;;;;3.13;2.10;;;8.90;99.90;;;;;;5030571;28;20022;-87
2022/04/06 02:17:38;;;;;;;3.20;2.88;;;8.90;99.90;;;;;;5032583;28;20032;-87
2022/04/06 02:20:04;;;;;;;3.25;2.65;;;8.90;99.90;;;;;;5050812;28;20036;-87
2022/04/06 02:22:30;;;;;;;3.90;2.58;;;8.90;99.90;;;;;;5055284;28;20052;-86
2022/04/06 02:24:56;;;;;;;3.15;2.55;;;8.90;99.90;;;;;;5053194;28;20108;-87
2022/04/06 02:27:22;;;;;;;3.03;2.60;;;8.90;99.90;;;;;;5049276;28;20021;-87
2022/04/06 02:29:48;;;;;;;4.40;2.80;;;8.90;99.90;;;;;;5049416;28;20055;-87
2022/04/06 02:32:14;;;;;;;2.90;2.45;;;8.90;99.90;;;;;;5050995;28;20454;-86
2022/04/06 02:34:43;;;;;;;3.33;2.83;;;8.90;99.90;;;;;;5050849;28;20086;-86
2022/04/06 02:37:10;;;;;;;3.58;2.95;;;8.90;99.90;;;;;;5064896;28;20025;-87
2022/04/06 02:39:36;;;;;;;3.83;2.58;;;8.90;99.90;;;;;;5045546;28;20496;-86
2022/04/06 02:42:03;;;;;;;4.75;3.03;;;8.80;99.90;;;;;;5049806;28;20025;-86
2022/04/06 02:44:28;;;;;;;3.97;2.88;;;8.80;99.90;;;;;;5051133;28;20024;-85
2022/04/06 02:46:54;;;;;;;3.75;3.20;;;8.80;99.90;;;;;;5073630;28;20033;-87
2022/04/06 02:49:20;;;;;;;3.78;3.35;;;8.80;99.90;;;;;;5073759;28;20035;-87
2022/04/06 02:51:46;;;;;;;4.25;3.10;;;8.80;99.90;;;;;;5056150;28;20017;-88
2022/04/06 02:54:12;;;;;;;3.80;2.80;;;8.80;99.90;;;;;;5056342;28;20021;-87
2022/04/06 02:56:39;;;;;;;4.43;2.70;;;8.80;99.90;;;;;;5056995;28;20045;-87
2022/04/06 02:59:05;;;;;;;4.70;2.42;;;8.80;99.90;;;;;;5064805;28;20032;-87
2022/04/06 03:01:31;;;;;;;3.42;2.58;;;8.70;99.90;;;;;;5050748;28;20021;-87
2022/04/06 03:03:57;;;;;;;5.03;3.58;;;8.70;99.90;;;;;;5050969;28;20029;-86
2022/04/06 03:06:22;;;;;;;3.83;2.75;;;8.70;99.90;;;;;;5072355;28;20032;-87
2022/04/06 03:08:48;;;;;;;6.13;3.60;;;8.70;99.90;;;;;;5045771;28;20389;-86
2022/04/06 03:11:14;;;;;;;3.10;2.47;;;8.70;99.90;;;;;;5056455;28;20088;-87
2022/04/06 03:13:39;;;;;;;3.80;2.75;;;8.70;99.90;;;;;;5056612;28;20025;-87
2022/04/06 03:16:06;;;;;;;2.63;2.03;;;8.60;99.90;;;;;;5066384;28;20462;-86
2022/04/06 03:18:32;;;;;;;3.50;2.22;;;8.60;99.90;;;;;;5059054;28;20497;-87
2022/04/06 03:20:58;;;;;;;2.40;2.20;;;8.70;99.90;;;;;;5042040;28;20052;-87
2022/04/06 03:23:23;;;;;;;3.95;1.85;;;8.60;99.90;;;;;;5062098;28;20035;-86
2022/04/06 03:25:52;;;;;;;2.40;1.85;;;8.60;99.90;;;;;;5044188;28;20093;-86
2022/04/06 03:28:19;;;;;;;1.90;1.65;;;8.60;99.90;;;;;;5062867;28;20025;-86
2022/04/06 03:30:48;;;;;;;2.92;2.20;;;8.60;99.90;;;;;;5043976;28;20033;-86
2022/04/06 03:33:17;;;;;;;2.58;2.10;;;8.70;99.90;;;;;;5069550;28;20032;-87
2022/04/06 03:35:43;;;;;;;2.83;2.10;;;8.70;99.90;;;;;;5056626;28;20017;-86
2022/04/06 03:38:08;;;;;;;1.95;1.73;;;8.70;99.90;;;;;;5041922;28;20021;-86
2022/04/06 03:40:35;;;;;;;1.45;1.35;;;8.60;99.90;;;;;;5042720;28;20043;-86
2022/04/06 03:43:01;;;;;;;1.85;1.40;;;8.50;99.90;;;;;;5060707;28;20025;-87
2022/04/06 03:45:27;;;;;;;2.05;1.65;;;8.40;99.90;;;;;;5043782;28;20048;-85
2022/04/06 03:47:53;;;;;;;1.80;1.40;;;8.30;99.90;;;;;;5043464;28;20021;-86
2022/04/06 03:50:19;;;;;;;1.85;1.67;;;8.20;99.90;;;;;;5041211;28;20116;-81
2022/04/06 03:52:45;;;;;;;1.75;1.35;;;8.00;99.90;;;;;;5023420;28;20079;-79
2022/04/06 03:55:10;;;;;;;2.83;1.55;;;8.00;99.90;;;;;;5039990;28;20021;-79
2022/04/06 03:57:38;;;;;;;1.17;1.10;;;7.90;99.90;;;;;;5039112;28;20051;-79
2022/04/06 04:00:05;;;;;;;1.60;1.50;;;7.80;99.90;;;;;;5057710;28;20040;-80
2022/04/06 04:02:31;;;;;;;1.65;1.55;;;7.80;99.90;;;;;;5058812;28;20025;-80
2022/04/06 04:04:58;;;;;;;3.47;1.45;;;7.80;99.90;;;;;;5056298;28;20016;-79
2022/04/06 04:07:24;;;;;;;1.45;1.35;;;7.70;99.90;;;;;;5066548;28;20025;-79
2022/04/06 04:09:50;;;;;;;1.55;1.45;;;7.80;99.90;;;;;;5066518;28;20039;-79
2022/04/06 04:12:17;;;;;;;1.20;1.10;;;7.80;99.90;;;;;;5064493;28;20025;-80
2022/04/06 04:14:43;;;;;;;1.40;1.30;;;7.90;99.90;;;;;;5042876;28;20029;-79
2022/04/06 04:17:09;;;;;;;1.30;1.20;;;8.00;99.90;;;;;;5060811;28;20040;-84
2022/04/06 04:19:35;;;;;;;1.55;1.45;;;8.00;99.90;;;;;;5044765;28;20036;-83
2022/04/06 04:22:01;;;;;;;1.33;1.23;;;8.10;99.90;;;;;;5060942;28;20022;-82
2022/04/06 04:24:27;;;;;;;1.00;1.00;;;8.20;99.90;;;;;;5060618;28;20074;-82
2022/04/06 04:26:53;;;;;;;0.95;0.90;;;8.20;99.90;;;;;;5041796;28;20438;-81
2022/04/06 04:29:26;;;;;;;1.35;1.17;;;8.30;99.90;;;;;;5067758;28;20063;-80
2022/04/06 04:31:52;;;;;;;0.80;0.80;;;8.30;99.90;;;;;;5073442;28;20032;-80
2022/04/06 04:34:18;;;;;;;1.10;1.00;;;8.30;99.90;;;;;;5064095;28;20088;-81
2022/04/06 04:36:43;;;;;;;1.08;1.00;;;8.40;99.90;;;;;;5046430;28;20025;-80
2022/04/06 04:39:09;;;;;;;1.30;0.85;;;8.40;99.90;;;;;;5054635;22;20046;-79
2022/04/06 04:41:35;;;;;;;1.00;1.00;;;8.50;99.90;;;;;;5070780;28;20024;-79
2022/04/06 04:44:00;;;;;;;1.73;1.10;;;8.50;99.90;;;;;;5092275;28;20035;-80
2022/04/06 04:46:27;;;;;;;1.23;1.13;;;8.50;99.90;;;;;;5091740;28;20024;-80
2022/04/06 04:48:52;;;;;;;1.05;0.95;;;8.50;99.90;;;;;;5097217;28;20020;-80
2022/04/06 04:51:18;;;;;;;0.93;0.93;;;8.60;99.90;;;;;;5083137;28;20529;-79
2022/04/06 04:53:44;;;;;;;0.70;0.70;;;8.60;99.90;;;;;;5093157;28;20048;-79
2022/04/06 04:56:10;;;;;;;0.60;0.60;;;8.60;99.90;;;;;;5085852;28;20020;-79
2022/04/06 04:58:36;;;;;;;0.98;0.90;;;8.60;99.90;;;;;;5077962;28;20400;-79
2022/04/06 05:01:02;;;;;;;1.25;1.00;;;8.70;99.90;;;;;;5080007;28;20028;-79
2022/04/06 05:03:27;;;;;;;1.10;1.00;;;8.70;99.90;;;;;;5067341;28;20062;-80
2022/04/06 05:05:54;;;;;;;1.75;1.10;;;8.70;99.90;;;;;;5067931;28;20058;-79
2022/04/06 05:08:21;;;;;;;1.27;1.17;;;8.70;99.90;;;;;;5087817;28;20190;-80
2022/04/06 05:10:46;;;;;;;2.25;1.30;;;8.80;99.90;;;;;;5097209;28;20055;-80
2022/04/06 05:13:14;;;;;;;1.42;1.20;;;8.80;99.90;;;;;;5099217;28;20024;-79
2022/04/06 05:15:41;;;;;;;2.25;1.27;;;8.90;99.90;;;;;;5099148;28;20039;-80
2022/04/06 05:18:06;;;;;;;2.63;1.52;;;8.90;99.90;;;;;;5081035;28;20032;-80
2022/04/06 05:20:33;;;;;;;1.85;1.60;;;9.00;99.90;;;;;;5099728;28;20145;-79
2022/04/06 05:22:58;;;;;;;1.92;1.30;;;9.10;99.90;;;;;;5100384;28;20035;-80
2022/04/06 05:25:24;;;;;;;2.20;1.55;;;9.20;99.90;;;;;;5113404;28;20016;-79
2022/04/06 05:27:53;;;;;;;1.40;1.25;;;9.30;99.90;;;;;;5117407;28;20032;-79
2022/04/06 05:30:22;;;;;;;1.95;1.60;;;9.40;99.90;;;;;;5118097;28;20035;-80
2022/04/06 05:32:50;;;;;;;1.88;1.77;;;9.40;99.90;;;;;;5118710;28;20008;-79
2022/04/06 05:35:16;;;;;;;2.30;1.92;;;9.50;99.90;;;;;;5106488;28;20036;-79
2022/04/06 05:37:43;;;;;;;2.28;1.48;;;9.60;99.90;;;;;;5074411;28;20059;-81
2022/04/06 05:40:10;;;;;;;1.88;1.70;;;9.60;99.90;;;;;;5089226;28;20020;-81
2022/04/06 05:42:37;;;;;;;3.20;2.17;;;9.60;99.90;;;;;;5081299;28;20472;-82
2022/04/06 05:45:09;;;;;;;1.80;1.70;;;9.60;99.90;;;;;;5101167;28;20032;-81
2022/04/06 05:47:35;;;;;;;;;;;9.60;99.90;;;;;;5099887;28;20218;-81
2022/04/06 05:50:02;;;;;;;2.85;1.77;;;9.60;99.90;;;;;;5094827;28;19983;-82
2022/04/06 05:52:28;;;;;;;2.67;1.80;;;9.60;99.90;;;;;;5083768;28;20451;-81
2022/04/06 05:54:53;;;;;;;3.00;2.45;;;9.80;99.90;;;;;;5080307;28;20025;-82
2022/04/06 05:57:20;;;;;;;3.35;2.15;;;10.00;99.90;;;;;;5089278;28;20024;-81
2022/04/06 05:59:46;;;;;;;1.95;1.77;;;10.10;99.90;;;;;;5098995;28;20051;-82
2022/04/06 06:02:13;;;;;;;1.73;1.60;;;10.10;99.90;;;;;;5099055;28;20051;-82
2022/04/06 06:04:39;;;;;;;1.92;1.73;;;10.20;99.90;;;;;;5100010;28;20492;-81
2022/04/06 06:07:08;;;;;;;1.50;1.40;;;10.30;99.90;;;;;;5094624;28;20028;-82
2022/04/06 06:09:35;;;;;;;3.03;1.77;;;10.40;99.70;;;;;;5062021;28;20036;-83
2022/04/06 06:12:01;;;;;;;3.00;1.90;;;10.30;99.30;;;;;;5067934;28;20036;-82
2022/04/06 06:14:30;;;;;;;6.03;1.85;;;10.30;99.10;;;;;;5094492;28;20048;-82
2022/04/06 06:16:58;;;;;;;2.78;2.00;;;10.30;99.20;;;;;;5084390;28;20529;-82
2022/04/06 06:19:24;;;;;;;3.20;2.13;;;10.30;99.20;;;;;;5078272;28;20028;-81
2022/04/06 06:21:50;;;;;;;2.90;1.85;;;10.30;99.00;;;;;;5079187;28;20133;-82
2022/04/06 06:24:16;;;;;;;2.95;1.67;;;10.50;98.90;;;;;;5068921;28;20036;-83
2022/04/06 06:26:42;;;;;;;1.88;1.40;;;10.70;98.40;;;;;;5099668;28;20024;-81
2022/04/06 06:29:08;;;;;;;2.17;1.98;;;10.90;97.80;;;;;;5099993;28;20103;-82
2022/04/06 06:31:34;;;;;;;2.13;1.92;;;10.90;97.30;;;;;;5100297;28;20043;-83
2022/04/06 06:34:01;;;;;;;3.55;2.08;;;11.00;96.90;;;;;;5108012;28;20028;-83
2022/04/06 06:36:27;;;;;;;3.45;2.22;;;11.00;96.60;;;;;;5113530;28;20051;-82
2022/04/06 06:38:54;;;;;;;2.80;2.10;;;11.00;96.50;;;;;;5089104;28;20137;-82
2022/04/06 06:41:23;;;;;;;3.75;2.00;;;11.00;96.50;;;;;;5072477;28;20050;-83
2022/04/06 06:43:50;;;;;;;2.20;2.00;;;11.20;96.90;;;;;;5080427;28;20516;-82
2022/04/06 06:46:24;;;;;;;1.67;1.40;;;11.50;96.90;;;;;;5100253;28;20040;-82
2022/04/06 06:48:51;;;;;;;2.08;1.80;;;11.90;96.10;;;;;;5094063;28;20388;-82
2022/04/06 06:51:17;;;;;;;2.67;1.98;;;12.20;95.20;;;;;;5090676;28;20394;-82
2022/04/06 06:53:43;;;;;;;5.40;2.13;;;12.30;94.20;;;;;;5078361;28;20029;-82
2022/04/06 06:56:09;;;;;;;2.45;2.00;;;12.40;94.00;;;;;;5072586;28;20119;-82
2022/04/06 06:58:35;;;;;;;2.80;2.22;;;12.60;93.40;;;;;;5098676;28;20024;-81
2022/04/06 07:01:01;;;;;;;2.58;2.38;;;12.70;92.90;;;;;;5070303;28;20021;-80
2022/04/06 07:03:27;;;;;;;1.80;1.42;;;12.80;92.60;;;;;;5060584;28;20039;-82
2022/04/06 07:05:53;;;;;;;2.88;1.55;;;12.80;92.30;;;;;;5078877;28;20448;-83
2022/04/06 07:08:19;;;;;;;1.88;1.52;;;12.70;92.30;;;;;;5079755;28;20046;-82
2022/04/06 07:10:45;;;;;;;1.52;1.42;;;12.70;92.20;;;;;;5067143;28;20416;-81
2022/04/06 07:13:12;;;;;;;1.77;1.45;;;12.60;92.20;;;;;;5088413;28;20024;-82
2022/04/06 07:15:39;;;;;;;1.33;1.20;;;12.60;92.10;;;;;;5086553;28;20387;-80
2022/04/06 07:18:07;;;;;;;4.78;1.67;;;12.50;92.20;;;;;;5086163;28;20032;-80
2022/04/06 07:20:35;;;;;;;1.88;1.60;;;12.50;92.10;;;;;;5103731;28;20077;-81
2022/04/06 07:23:02;;;;;;;2.28;1.20;;;12.60;91.90;;;;;;5083178;28;20020;-80
2022/04/06 07:25:29;;;;;;;1.35;1.13;;;12.60;91.70;;;;;;5107770;28;20098;-82
2022/04/06 07:27:55;;;;;;;1.85;1.48;;;12.60;91.60;;;;;;5083207;28;20036;-82
2022/04/06 07:30:20;;;;;;;1.70;1.60;;;12.70;91.50;;;;;;5077840;28;20020;-81
2022/04/06 07:32:47;;;;;;;2.92;1.80;;;12.80;91.30;;;;;;5081457;28;20031;-81
2022/04/06 07:35:13;;;;;;;7.22;5.18;;;12.90;91.10;;;;;;5095814;28;20027;-81
2022/04/06 07:37:44;;;;;;;5.50;3.80;;;13.00;90.80;;;;;;5063338;28;20021;-82
2022/04/06 07:40:16;;;;;;;6.72;4.38;;;13.10;90.60;;;;;;5076308;28;20420;-82
2022/04/06 07:42:46;;;;;;;5.50;3.35;;;13.10;90.30;;;;;;5121395;28;20020;-83
2022/04/06 07:45:17;;;;;;;3.22;2.83;;;12.90;90.30;;;;;;5102807;28;20032;-80
2022/04/06 07:47:45;;;;;;;3.25;2.35;;;12.50;90.60;;;;;;5116707;28;20028;-78
2022/04/06 07:50:14;;;;;;;2.95;2.60;;;12.40;91.10;;;;;;5109763;28;20028;-80
2022/04/06 07:52:40;;;;;;;2.47;2.15;;;12.40;91.30;;;;;;5103815;28;20016;-79
2022/04/06 07:55:07;;;;;;;2.63;2.40;;;12.60;91.10;;;;;;5100921;28;20024;-77
2022/04/06 07:57:35;;;;;;;5.03;2.50;;;12.70;91.00;;;;;;5086481;28;20033;-78
2022/04/06 08:00:06;;;;;;;3.08;2.58;;;12.90;90.40;;;;;;5086556;28;20017;-81
2022/04/06 08:02:32;;;;;;;2.83;2.42;;;13.10;89.70;;;;;;5077125;28;20040;-78
2022/04/06 08:04:58;;;;;;;3.42;2.60;;;13.50;89.50;;;;;;5085936;28;20043;-78
2022/04/06 08:07:24;;;;;;;3.83;2.78;;;13.80;87.20;;;;;;5081397;28;20020;-77
2022/04/06 08:09:49;;;;;;;5.93;3.63;;;14.00;86.30;;;;;;5091089;28;20032;-78
2022/04/06 08:12:15;;;;;;;3.78;3.03;;;14.00;84.60;;;;;;5080178;28;20032;-78
2022/04/06 08:14:41;;;;;;;4.85;2.97;;;13.70;85.50;;;;;;5100882;28;20073;-77
2022/04/06 08:17:07;;;;;;;3.60;3.00;;;13.70;86.30;;;;;;5101872;28;20028;-78
2022/04/06 08:19:32;;;;;;;4.07;3.05;;;13.90;86.80;;;;;;5116173;28;20050;-79
2022/04/06 08:21:58;;;;;;;4.53;2.47;;;14.20;84.40;;;;;;5104586;28;20029;-78
2022/04/06 08:24:27;;;;;;;4.97;3.00;;;14.60;82.30;;;;;;5081535;28;20603;-78
2022/04/06 08:26:58;;;;;;;3.88;3.10;;;14.70;81.80;;;;;;5099826;28;20028;-78
2022/04/06 08:29:24;;;;;;;9.57;3.37;;;14.90;80.50;;;;;;5060109;28;20029;-78
2022/04/06 08:31:49;;;;;;;7.65;4.45;;;14.80;79.10;;;;;;5059861;28;20021;-79
2022/04/06 08:34:18;;;;;;;4.72;3.47;;;14.70;79.20;;;;;;5068462;28;20432;-81
2022/04/06 08:36:45;;;;;;;4.47;3.20;;;14.70;78.80;;;;;;5084741;28;20028;-79
2022/04/06 08:39:14;;;;;;;4.38;3.50;;;14.50;80.00;;;;;;5065892;28;20024;-79
2022/04/06 08:41:44;;;;;;;4.43;3.63;;;14.40;80.40;;;;;;5062164;28;20377;-80
2022/04/06 08:44:10;;;;;;;4.68;3.25;;;14.50;80.30;;;;;;5067421;28;20033;-80
2022/04/06 08:46:39;;;;;;;3.80;2.70;;;14.90;79.90;;;;;;5083654;28;20029;-80
2022/04/06 08:49:05;;;;;;;4.07;2.90;;;15.10;78.00;;;;;;5085600;28;20020;-79
2022/04/06 08:51:33;;;;;;;3.17;2.88;;;15.40;77.40;;;;;;5084498;28;20685;-79
2022/04/06 08:53:59;;;;;;;5.00;2.60;;;15.40;76.30;;;;;;5084396;28;20134;-80
2022/04/06 08:56:25;;;;;;;3.38;2.97;;;15.10;77.40;;;;;;5085082;28;20433;-79
2022/04/06 08:58:51;;;;;;;3.15;2.85;;;14.70;77.90;;;;;;5083123;28;20082;-79
2022/04/06 09:01:18;;;;;;;3.25;2.95;;;14.40;79.20;;;;;;5084818;28;20016;-79
2022/04/06 09:03:44;;;;;;;2.20;1.95;;;14.40;80.50;;;;;;5084116;28;20408;-79
2022/04/06 09:06:12;;;;;;;2.75;2.47;;;14.50;80.70;;;;;;5083298;28;20032;-79
2022/04/06 09:08:46;;;;;;;3.90;2.70;;;14.90;80.00;;;;;;5089145;28;20016;-79
2022/04/06 09:11:20;;;;;;;3.67;2.50;;;15.50;77.50;;;;;;5109900;28;20024;-80
2022/04/06 09:13:48;;;;;;;4.65;3.35;;;15.90;75.10;;;;;;5105611;28;20027;-80
2022/04/06 09:16:17;;;;;;;3.95;2.83;;;15.90;73.60;;;;;;5108396;28;20088;-80
2022/04/06 09:18:48;;;;;;;3.53;3.05;;;15.90;73.40;;;;;;5089191;28;20031;-80
2022/04/06 09:21:17;;;;;;;3.33;2.15;;;16.30;73.10;;;;;;5105914;28;20030;-79
2022/04/06 09:23:48;;;;;;;2.85;2.45;;;16.60;72.00;;;;;;5104887;28;20035;-79
2022/04/06 09:26:17;;;;;;;4.55;2.53;;;16.70;69.90;;;;;;5085970;28;20039;-80
2022/04/06 09:28:45;;;;;;;3.30;3.00;;;16.60;69.50;;;;;;5087089;28;20044;-80
2022/04/06 09:31:16;;;;;;;4.80;2.90;;;16.60;68.90;;;;;;5097967;28;20043;-81
2022/04/06 09:33:43;;;;;;;3.97;2.50;;;16.70;68.70;;;;;;5084271;28;20025;-80
2022/04/06 09:36:20;;;;;;;5.35;3.20;;;16.60;69.00;;;;;;5064900;28;20055;-80
2022/04/06 09:38:48;;;;;;;2.80;2.35;;;16.60;68.00;;;;;;5088025;28;20078;-80
2022/04/06 09:41:15;;;;;;;3.17;2.40;;;16.70;69.00;;;;;;5089462;28;20023;-80
2022/04/06 09:43:42;;;;;;;4.47;2.50;;;17.10;67.90;;;;;;5087827;28;20035;-80
2022/04/06 09:49:14;;;;;;;2.47;2.28;;;17.20;65.80;;;;;;5083611;28;20034;-81
2022/04/06 09:51:44;;;;;;;2.88;2.30;;;17.00;66.70;;;;;;5088374;28;20063;-81
2022/04/06 09:54:12;;;;;;;3.10;2.63;;;17.10;66.80;;;;;;5087293;28;20017;-79
2022/04/06 09:56:39;;;;;;;4.18;2.53;;;17.40;65.30;;;;;;5088201;28;20016;-80
2022/04/06 09:59:06;;;;;;;3.35;2.97;;;17.50;65.20;;;;;;5068224;28;20028;-81
2022/04/06 10:01:40;;;;;;;4.13;2.28;;;17.60;64.50;;;;;;5093038;28;20099;-80
2022/04/06 10:04:11;;;;;;;3.22;2.72;;;17.10;65.00;;;;;;5097322;28;20031;-80
2022/04/06 10:06:38;;;;;;;4.55;3.20;;;16.60;66.10;;;;;;5096996;28;20028;-80
2022/04/06 10:09:09;;;;;;;2.85;2.53;;;16.60;66.50;;;;;;5102288;28;20035;-80
2022/04/06 10:11:38;;;;;;;2.63;2.15;;;16.80;66.20;;;;;;5107282;28;20031;-80
2022/04/06 10:14:06;;;;;;;2.90;2.50;;;16.80;66.30;;;;;;5111652;28;20112;-81
2022/04/06 10:16:34;;;;;;;3.08;2.78;;;16.90;65.90;;;;;;5108520;28;20083;-80
2022/04/06 10:19:02;;;;;;;3.08;2.50;;;17.20;64.60;;;;;;5077698;28;20044;-81
2022/04/06 10:21:36;;;;;;;1.95;1.85;;;17.30;63.90;;;;;;5085909;28;20046;-80
2022/04/06 10:24:30;;;;;;;2.05;1.90;;;17.10;64.40;;;;;;5084447;28;20047;-79
2022/04/06 10:27:16;;;;;;;2.03;1.83;;;17.20;65.30;;;;;;5065090;28;20021;-81
2022/04/06 10:30:07;;;;;;;2.30;2.10;;;17.30;64.50;;;;;;5101107;28;20008;-81
2022/04/06 10:32:40;;;;;;;3.20;2.90;;;17.60;63.30;;;;;;5079265;28;20028;-81
2022/04/06 10:35:35;;;;;;;2.85;2.22;;;17.70;62.00;;;;;;5086873;28;20063;-82
2022/04/06 10:38:04;;;;;;;2.65;2.00;;;17.70;63.00;;;;;;5100997;28;20032;-80
2022/04/06 10:41:01;;;;;;;2.70;2.50;;;17.90;62.50;;;;;;5097744;28;20031;-81
2022/04/06 10:43:48;;;;;;;5.18;2.78;;;18.10;60.80;;;;;;5115220;28;20016;-80
2022/04/06 10:46:38;;;;;;;2.20;2.00;;;18.10;60.40;;;;;;5064794;28;20020;-80
2022/04/06 10:49:06;;;;;;;2.75;2.38;;;17.90;61.20;;;;;;5092075;28;20423;-80
2022/04/06 10:51:37;;;;;;;1.63;1.52;;;17.80;61.60;;;;;;5079185;28;20020;-80
2022/04/06 10:54:15;;;;;;;3.05;2.05;;;18.00;61.90;;;;;;5108117;28;20057;-80
2022/04/06 10:56:50;;;;;;;2.38;2.17;;;18.10;61.30;;;;;;5065159;28;20037;-80
2022/04/06 10:59:16;;;;;;;2.70;1.92;;;18.40;59.50;;;;;;5064636;28;20041;-80
2022/04/06 11:01:46;;;;;;;3.35;1.92;;;18.50;59.40;;;;;;5069975;28;20062;-81
2022/04/06 11:04:24;;;;;;;3.80;3.00;;;18.30;58.80;;;;;;5051180;28;20013;-81
2022/04/06 11:06:56;;;;;;;2.90;2.00;;;18.20;59.80;;;;;;5071719;28;20060;-79
2022/04/06 11:12:32;;;;;;;2.67;2.47;;;17.80;58.50;;;;;;5100849;28;20067;-80
2022/04/06 11:15:00;;;;;;;5.78;2.42;;;17.60;58.80;;;;;;5086200;28;20506;-80
2022/04/06 11:17:34;;;;;;;1.60;1.50;;;17.50;59.00;;;;;;5101407;28;20062;-79
2022/04/06 11:20:00;;;;;;;1.83;1.58;;;17.60;59.20;;;;;;5103642;28;20361;-80
2022/04/06 11:22:26;;;;;;;3.85;1.45;;;17.80;58.80;;;;;;5085705;28;20047;-80
2022/04/06 11:24:54;;;;;;;2.05;1.30;;;17.90;59.10;;;;;;5086794;28;20020;-79
2022/04/06 11:27:33;;;;;;;1.90;1.42;;;18.00;58.80;;;;;;5095458;28;20488;-79
2022/04/06 11:30:13;;;;;;;1.70;1.00;;;18.10;57.50;;;;;;5069644;28;20531;-80
2022/04/06 11:32:51;;;;;;;1.40;1.30;;;18.20;57.40;;;;;;5101207;28;20016;-80
2022/04/06 11:35:17;;;;;;;1.33;1.23;;;18.50;57.00;;;;;;5092502;28;20012;-79
2022/04/06 11:37:47;;;;;;;1.63;1.30;;;18.70;55.60;;;;;;5068955;28;20449;-79
2022/04/06 11:40:17;;;;;;;2.15;1.70;;;19.00;55.30;;;;;;5067060;28;20096;-79
2022/04/06 11:42:47;;;;;;;3.25;1.90;;;18.90;54.80;;;;;;5085518;28;20021;-80
2022/04/06 11:45:23;;;;;;;2.25;1.52;;;18.40;55.90;;;;;;5083175;28;20337;-79
2022/04/06 11:47:53;;;;;;;2.15;1.45;;;17.90;57.30;;;;;;5101220;28;20058;-79
2022/04/06 11:50:19;;;;;;;1.80;1.60;;;17.80;58.50;;;;;;5103450;28;20016;-80
2022/04/06 11:52:45;;;;;;;1.60;1.10;;;17.90;58.10;;;;;;5086632;28;20052;-80
2022/04/06 11:55:11;;;;;;;1.80;1.40;;;18.50;58.10;;;;;;5087088;28;20043;-80
2022/04/06 11:57:43;;;;;;;3.00;1.50;;;18.90;56.60;;;;;;5104908;28;20048;-82
2022/04/06 12:00:11;;;;;;;2.08;1.20;;;19.00;55.10;;;;;;5084742;28;20056;-80
2022/04/06 12:02:56;;;;;;;0.93;0.80;;;18.90;54.50;;;;;;5084282;28;20031;-81
2022/04/06 12:05:24;;;;;;;6.07;1.38;;;18.80;54.10;;;;;;5062911;28;20021;-80
2022/04/06 12:08:07;;;;;;;1.05;0.95;;;18.70;53.20;;;;;;5064265;28;20102;-79
2022/04/06 12:10:36;;;;;;;1.27;0.93;;;18.80;53.00;;;;;;5085660;28;20016;-80
2022/04/06 12:13:02;;;;;;;4.05;1.17;;;19.00;52.80;;;;;;5098863;28;20032;-80
2022/04/06 12:15:28;;;;;;;9.10;0.93;;;19.00;52.80;;;;;;5095068;28;20038;-80
2022/04/06 12:17:54;;;;;;;1.23;1.05;;;19.20;52.30;;;;;;5074634;28;20047;-79
2022/04/06 12:20:22;;;;;;;2.55;0.90;;;19.20;52.30;;;;;;5086424;28;20058;-80
2022/04/06 12:23:03;;;;;;;1.73;1.17;;;19.10;51.70;;;;;;5112277;28;20017;-80
2022/04/06 12:25:30;;;;;;;0.70;0.70;;;18.80;52.40;;;;;;5095665;28;20044;-81
2022/04/06 12:28:17;;;;;;;0.70;0.70;;;18.40;53.70;;;;;;5075284;28;20054;-79
2022/04/06 12:31:03;;;;;;;0.70;0.70;;;18.30;54.20;;;;;;5094129;28;20039;-80
2022/04/06 12:33:48;;;;;;;1.73;1.13;;;18.20;54.70;;;;;;5094098;28;20083;-80
2022/04/06 12:36:24;;;;;;;0.93;0.90;;;18.30;54.40;;;;;;5106267;28;20035;-80
2022/04/06 12:39:01;;;;;;;2.38;1.25;;;18.20;54.30;;;;;;5096639;28;20025;-79
2022/04/06 12:41:34;;;;;;;1.48;0.75;;;18.10;54.40;;;;;;5098983;28;20025;-79
2022/04/06 12:44:04;;;;;;;0.98;0.80;;;18.20;54.50;;;;;;5090052;28;20024;-81
2022/04/06 12:46:38;;;;;;;2.13;0.70;;;18.40;53.50;;;;;;5091989;28;20530;-80
2022/04/06 12:49:36;;;;;;;0.93;0.57;;;18.50;53.60;;;;;;5074351;28;20025;-80
2022/04/06 12:52:20;;;;;;;0.70;0.65;;;18.60;53.00;;;;;;5089594;28;20099;-80
2022/04/06 12:54:51;;;;;;;1.95;0.85;;;18.70;52.80;;;;;;5086881;28;20032;-80
2022/04/06 12:57:19;;;;;;;1.17;0.70;;;18.80;52.60;;;;;;5087216;28;20025;-80
2022/04/06 12:59:57;;;;;;;0.82;0.57;;;18.80;52.40;;;;;;5070471;28;20037;-79
2022/04/06 13:02:24;;;;;;;1.15;1.05;;;18.70;51.60;;;;;;5088203;28;20020;-79
2022/04/06 13:04:52;;;;;;;1.30;1.20;;;18.60;52.30;;;;;;5068702;28;20028;-80
2022/04/06 13:07:17;;;;;;;3.80;1.63;;;18.50;53.30;;;;;;5074167;28;20088;-80
2022/04/06 13:09:51;;;;;;;1.15;0.80;;;18.40;54.10;;;;;;5079439;28;20020;-82
2022/04/06 13:12:23;;;;;;;0.93;0.80;;;18.30;54.30;;;;;;5103605;28;20277;-83